Time;durP1;ratioP1;P1;durP2;ratioP2;P2;SDS_P1;SDS_P2;PMS_P1;PMS_P2;Temp;Humidity;BMP_temperature;BMP_pressure;BME280_temperature;BME280_humidity;BME280_pressure;Samples;Min_cycle;Max_cycle;Signal;HPM_P1;HPM_P2
2022/07/10 00:00:17;;;;;;;6.75;1.35;;;13.20;99.90;;;;;;5041908;28;20041;-72
2022/07/10 00:02:43;;;;;;;10.40;1.38;;;13.20;99.90;;;;;;5008445;28;20038;-70
2022/07/10 00:05:10;;;;;;;9.93;1.38;;;13.20;99.90;;;;;;5011104;28;20442;-70
2022/07/10 00:07:36;;;;;;;10.27;1.40;;;13.20;99.90;;;;;;5010316;28;20072;-70
2022/07/10 00:10:03;;;;;;;8.18;1.33;;;13.10;99.90;;;;;;5010027;28;20050;-70
2022/07/10 00:12:29;;;;;;;7.05;1.20;;;13.00;99.90;;;;;;5009841;28;20034;-70
2022/07/10 00:14:55;;;;;;;7.93;1.15;;;13.00;99.90;;;;;;5010357;28;20225;-71
2022/07/10 00:17:21;;;;;;;6.70;1.27;;;13.10;99.90;;;;;;5042419;28;20121;-71
2022/07/10 00:19:47;;;;;;;7.95;1.00;;;13.00;99.90;;;;;;5010051;28;20045;-71
2022/07/10 00:22:13;;;;;;;7.30;1.08;;;13.00;99.90;;;;;;5008574;28;20073;-71
2022/07/10 00:24:39;;;;;;;7.68;1.10;;;13.10;99.90;;;;;;5010215;28;20038;-71
2022/07/10 00:27:05;;;;;;;7.68;1.42;;;13.10;99.90;;;;;;5008017;28;20474;-71
2022/07/10 00:29:30;;;;;;;10.77;1.50;;;13.10;99.90;;;;;;5008968;28;20459;-71
2022/07/10 00:31:56;;;;;;;6.18;0.80;;;13.20;99.90;;;;;;5024885;28;20073;-71
2022/07/10 00:34:22;;;;;;;6.85;1.00;;;13.20;99.90;;;;;;5010048;28;20076;-71
2022/07/10 00:36:48;;;;;;;6.60;1.23;;;13.10;99.90;;;;;;5010102;28;20497;-71
2022/07/10 00:39:13;;;;;;;5.45;1.00;;;13.20;99.90;;;;;;5009858;28;20041;-71
2022/07/10 00:41:39;;;;;;;11.52;1.23;;;13.20;99.90;;;;;;5010061;28;20038;-71
2022/07/10 00:44:05;;;;;;;12.82;1.40;;;13.20;99.90;;;;;;4990475;28;20145;-71
2022/07/10 00:46:31;;;;;;;6.22;1.00;;;13.20;99.90;;;;;;5001778;28;20081;-71
2022/07/10 00:48:57;;;;;;;8.30;1.20;;;13.30;99.90;;;;;;5009632;28;20045;-71
2022/07/10 00:51:28;;;;;;;7.85;1.77;;;13.30;99.90;;;;;;5007019;28;20454;-71
2022/07/10 00:53:56;;;;;;;8.85;1.25;;;13.30;99.90;;;;;;5006724;28;20107;-71
2022/07/10 00:56:26;;;;;;;8.38;1.20;;;13.20;99.90;;;;;;5040475;28;20042;-71
2022/07/10 00:58:53;;;;;;;8.07;1.20;;;13.30;99.90;;;;;;5007310;28;20113;-71
2022/07/10 01:01:19;;;;;;;9.20;1.33;;;13.30;99.90;;;;;;5006336;28;20030;-71
2022/07/10 01:03:46;;;;;;;7.45;1.30;;;13.30;99.90;;;;;;5007765;28;20076;-71
2022/07/10 01:06:13;;;;;;;10.32;1.17;;;13.30;99.90;;;;;;5039913;28;20111;-71
2022/07/10 01:08:39;;;;;;;6.82;1.00;;;13.20;99.90;;;;;;5008000;28;20095;-71
2022/07/10 01:11:05;;;;;;;8.38;1.05;;;13.20;99.90;;;;;;5008421;28;20601;-71
2022/07/10 01:13:31;;;;;;;6.72;1.20;;;13.10;99.90;;;;;;5007494;28;20133;-72
2022/07/10 01:15:58;;;;;;;10.32;1.33;;;13.00;99.90;;;;;;5008249;28;20046;-71
2022/07/10 01:18:25;;;;;;;7.85;1.10;;;13.00;99.90;;;;;;5007271;28;20054;-71
2022/07/10 01:21:00;;;;;;;9.10;1.25;;;12.90;99.90;;;;;;5040327;28;20494;-71
2022/07/10 01:23:26;;;;;;;8.02;1.20;;;13.00;99.90;;;;;;5023811;28;20054;-72
2022/07/10 01:25:52;;;;;;;7.30;1.20;;;12.90;99.90;;;;;;5008469;28;20033;-72
2022/07/10 01:28:20;;;;;;;6.85;1.30;;;12.90;99.90;;;;;;5007790;28;20131;-72
2022/07/10 01:30:46;;;;;;;10.35;1.70;;;12.80;99.90;;;;;;5008341;28;20041;-72
2022/07/10 01:33:12;;;;;;;5.28;1.13;;;12.90;99.90;;;;;;5009711;28;20050;-71
2022/07/10 01:35:39;;;;;;;9.25;1.08;;;12.80;99.90;;;;;;5041593;28;20042;-71
2022/07/10 01:38:04;;;;;;;10.05;1.67;;;12.80;99.90;;;;;;5006652;28;20463;-71
2022/07/10 01:40:30;;;;;;;7.25;1.17;;;12.80;99.90;;;;;;5008385;28;20046;-71
2022/07/10 01:42:56;;;;;;;9.30;1.33;;;12.80;99.90;;;;;;5006699;28;20040;-71
2022/07/10 01:45:22;;;;;;;9.10;1.45;;;12.80;99.90;;;;;;5010131;28;20037;-71
2022/07/10 01:47:48;;;;;;;8.40;1.13;;;12.70;99.90;;;;;;5022017;28;20095;-71
2022/07/10 01:50:13;;;;;;;8.38;1.20;;;12.70;99.90;;;;;;5009955;28;20422;-71
2022/07/10 01:52:40;;;;;;;7.15;1.30;;;12.60;99.90;;;;;;5026184;28;20149;-71
2022/07/10 01:55:06;;;;;;;10.73;1.27;;;12.60;99.90;;;;;;5010257;28;20073;-72
2022/07/10 01:57:32;;;;;;;12.35;1.60;;;12.60;99.90;;;;;;5024822;28;20050;-71
2022/07/10 01:59:58;;;;;;;9.10;1.13;;;12.50;99.90;;;;;;4991433;28;20053;-71
2022/07/10 02:02:24;;;;;;;8.82;1.55;;;12.50;99.90;;;;;;5006677;28;20050;-71
2022/07/10 02:04:50;;;;;;;9.02;1.13;;;12.50;99.90;;;;;;5009183;28;20112;-71
2022/07/10 02:07:21;;;;;;;10.30;1.27;;;12.50;99.90;;;;;;5040446;28;20053;-71
2022/07/10 02:09:47;;;;;;;5.80;0.93;;;12.50;99.90;;;;;;5008903;28;20041;-72
2022/07/10 02:12:14;;;;;;;7.00;1.00;;;12.40;99.90;;;;;;5004974;28;20045;-72
2022/07/10 02:14:41;;;;;;;9.23;1.33;;;12.40;99.90;;;;;;4992509;28;20056;-72
2022/07/10 02:17:08;;;;;;;6.32;1.17;;;12.40;99.90;;;;;;5007541;28;20065;-71
2022/07/10 02:19:34;;;;;;;10.98;1.85;;;12.40;99.90;;;;;;5008896;28;20044;-71
2022/07/10 02:22:00;;;;;;;9.15;1.65;;;12.30;99.90;;;;;;5007722;28;20528;-71
2022/07/10 02:24:26;;;;;;;13.50;1.73;;;12.30;99.90;;;;;;5008377;28;20041;-71
2022/07/10 02:26:52;;;;;;;9.00;1.05;;;12.30;99.90;;;;;;5041085;28;20046;-71
2022/07/10 02:29:18;;;;;;;6.85;1.08;;;12.30;99.90;;;;;;5006949;28;20112;-71
2022/07/10 02:31:44;;;;;;;8.73;1.15;;;12.30;99.90;;;;;;4990874;28;20053;-71
2022/07/10 02:34:11;;;;;;;10.07;1.50;;;12.20;99.90;;;;;;5007771;28;20339;-71
2022/07/10 02:36:38;;;;;;;6.50;1.25;;;12.20;99.90;;;;;;5007031;28;20098;-71
2022/07/10 02:39:05;;;;;;;5.20;1.35;;;12.20;99.90;;;;;;4998465;28;20076;-71
2022/07/10 02:41:31;;;;;;;6.03;1.02;;;12.10;99.90;;;;;;5007686;28;20080;-71
2022/07/10 02:43:57;;;;;;;9.63;1.10;;;12.10;99.90;;;;;;5006157;28;20037;-70
2022/07/10 02:46:23;;;;;;;9.23;1.00;;;12.10;99.90;;;;;;5002468;28;20061;-70
2022/07/10 02:48:49;;;;;;;7.65;1.15;;;12.10;99.90;;;;;;5023469;28;20045;-70
2022/07/10 02:51:15;;;;;;;8.00;1.42;;;12.00;99.90;;;;;;5006466;28;20440;-70
2022/07/10 02:53:40;;;;;;;10.65;1.77;;;12.10;99.90;;;;;;5007614;28;20406;-70
2022/07/10 02:56:06;;;;;;;10.85;1.50;;;12.10;99.90;;;;;;5013353;28;20042;-70
2022/07/10 02:58:33;;;;;;;8.27;1.38;;;12.10;99.90;;;;;;5011234;28;20490;-71
2022/07/10 03:00:59;;;;;;;6.93;1.00;;;12.10;99.90;;;;;;5025229;28;20038;-71
2022/07/10 03:03:25;;;;;;;8.05;1.50;;;12.00;99.90;;;;;;5025559;28;20038;-71
2022/07/10 03:05:50;;;;;;;11.85;1.20;;;12.10;99.90;;;;;;5012478;28;20041;-71
2022/07/10 03:08:16;;;;;;;7.70;1.20;;;12.10;99.90;;;;;;5010945;28;20033;-71
2022/07/10 03:10:42;;;;;;;11.93;1.48;;;12.10;99.90;;;;;;5011508;28;20110;-71
2022/07/10 03:13:08;;;;;;;7.60;1.05;;;12.00;99.90;;;;;;5009655;28;20425;-71
2022/07/10 03:15:34;;;;;;;6.82;1.30;;;12.00;99.90;;;;;;5010993;28;20096;-71
2022/07/10 03:18:00;;;;;;;9.27;1.70;;;12.00;99.90;;;;;;5009221;28;20049;-71
2022/07/10 03:20:25;;;;;;;9.57;1.10;;;12.00;99.90;;;;;;4994954;28;20116;-71
2022/07/10 03:22:51;;;;;;;7.88;1.45;;;12.00;99.90;;;;;;5009779;28;20046;-71
2022/07/10 03:25:17;;;;;;;8.13;0.98;;;12.00;99.90;;;;;;5011728;28;20038;-71
2022/07/10 03:27:43;;;;;;;5.95;0.90;;;12.10;99.90;;;;;;5011018;28;20420;-71
2022/07/10 03:30:09;;;;;;;12.75;1.27;;;12.10;99.90;;;;;;5042303;28;20111;-70
2022/07/10 03:32:35;;;;;;;9.15;1.08;;;12.10;99.90;;;;;;5011612;28;20478;-70
2022/07/10 03:35:00;;;;;;;10.07;1.73;;;12.20;99.90;;;;;;5010510;28;20058;-70
2022/07/10 03:37:27;;;;;;;8.63;1.25;;;12.30;99.90;;;;;;5042187;28;20046;-70
2022/07/10 03:39:52;;;;;;;8.30;0.80;;;12.30;99.90;;;;;;5011868;28;20133;-70
2022/07/10 03:42:18;;;;;;;7.00;0.90;;;12.40;99.90;;;;;;5011112;28;20124;-70
2022/07/10 03:44:44;;;;;;;8.35;0.93;;;12.40;99.90;;;;;;5011835;28;20037;-70
2022/07/10 03:47:10;;;;;;;11.80;1.20;;;12.50;99.90;;;;;;5010300;28;20148;-70
2022/07/10 03:49:38;;;;;;;6.95;1.05;;;12.60;99.90;;;;;;5028606;28;20104;-70
2022/07/10 03:52:04;;;;;;;6.57;1.13;;;12.70;99.90;;;;;;5028371;28;20763;-70
2022/07/10 03:54:30;;;;;;;9.80;1.08;;;12.70;99.90;;;;;;5011018;28;20065;-70
2022/07/10 03:59:41;;;;;;;11.40;1.55;;;12.80;99.90;;;;;;5010918;28;20444;-70
2022/07/10 04:02:07;;;;;;;7.68;1.02;;;12.90;99.90;;;;;;5009685;28;20050;-70
2022/07/10 04:04:33;;;;;;;11.38;1.17;;;12.90;99.90;;;;;;5010708;28;20045;-70
2022/07/10 04:06:59;;;;;;;7.82;1.05;;;13.00;99.90;;;;;;5009578;28;20042;-72
2022/07/10 04:09:24;;;;;;;8.20;1.23;;;13.00;99.90;;;;;;5010215;28;20033;-71
2022/07/10 04:11:50;;;;;;;9.07;0.95;;;13.10;99.90;;;;;;5026007;28;20084;-71
2022/07/10 04:14:16;;;;;;;7.18;1.05;;;13.10;99.90;;;;;;5040085;28;20703;-71
2022/07/10 04:16:42;;;;;;;5.97;0.93;;;13.20;99.90;;;;;;5041861;28;20115;-71
2022/07/10 04:19:07;;;;;;;7.82;1.08;;;13.20;99.90;;;;;;4995441;28;20422;-71
2022/07/10 04:21:33;;;;;;;6.07;0.90;;;13.10;99.90;;;;;;5009357;28;20076;-71
2022/07/10 04:23:59;;;;;;;7.05;0.98;;;13.10;99.90;;;;;;5011232;28;20088;-71
2022/07/10 04:26:24;;;;;;;8.82;0.88;;;13.10;99.90;;;;;;5010582;28;20095;-71
2022/07/10 04:28:50;;;;;;;6.85;1.08;;;13.10;99.90;;;;;;5006134;28;20490;-71
2022/07/10 04:31:16;;;;;;;8.80;0.77;;;13.10;99.90;;;;;;5007747;28;20042;-71
2022/07/10 04:33:42;;;;;;;6.32;1.10;;;13.10;99.90;;;;;;5008445;28;20375;-71
2022/07/10 04:36:07;;;;;;;6.65;1.15;;;13.20;99.90;;;;;;5022942;28;20046;-71
2022/07/10 04:38:33;;;;;;;8.23;1.33;;;13.10;99.90;;;;;;5008451;28;20038;-71
2022/07/10 04:40:59;;;;;;;6.60;1.02;;;13.10;99.90;;;;;;5007470;28;20080;-71
2022/07/10 04:43:27;;;;;;;8.80;1.30;;;13.20;99.90;;;;;;5008490;28;20453;-71
2022/07/10 04:45:53;;;;;;;7.75;1.08;;;13.20;99.90;;;;;;5041774;28;20076;-71
2022/07/10 04:48:18;;;;;;;8.00;0.90;;;13.20;99.90;;;;;;5008708;28;20084;-71
2022/07/10 04:50:44;;;;;;;8.70;1.20;;;13.30;99.90;;;;;;5006252;28;20037;-71
2022/07/10 04:53:10;;;;;;;6.68;0.98;;;13.40;99.90;;;;;;5042340;28;20417;-71
2022/07/10 04:55:35;;;;;;;4.35;0.88;;;13.40;99.90;;;;;;5009081;28;20081;-71
2022/07/10 04:58:01;;;;;;;6.35;1.13;;;13.50;99.90;;;;;;5008775;28;20076;-71
2022/07/10 05:00:27;;;;;;;8.50;1.35;;;13.60;99.90;;;;;;4992856;28;20053;-71
2022/07/10 05:02:52;;;;;;;7.60;1.15;;;13.70;99.90;;;;;;5007399;28;20108;-71
2022/07/10 05:05:18;;;;;;;9.60;1.17;;;13.80;99.90;;;;;;5008442;28;20076;-71
2022/07/10 05:07:44;;;;;;;11.05;1.33;;;13.80;99.90;;;;;;5010760;28;20486;-71
2022/07/10 05:10:09;;;;;;;6.68;1.13;;;13.90;99.90;;;;;;4993006;28;20130;-71
2022/07/10 05:12:35;;;;;;;10.52;1.35;;;13.90;99.90;;;;;;5041379;28;20034;-71
2022/07/10 05:15:01;;;;;;;10.75;1.60;;;13.90;99.90;;;;;;5007106;28;20049;-70
2022/07/10 05:17:28;;;;;;;10.35;1.52;;;14.00;99.90;;;;;;5038943;28;20037;-70
2022/07/10 05:19:56;;;;;;;7.93;1.45;;;14.00;99.90;;;;;;4991566;28;20042;-70
2022/07/10 05:22:22;;;;;;;7.10;1.60;;;14.10;99.90;;;;;;5022915;28;20056;-70
2022/07/10 05:24:48;;;;;;;11.82;1.30;;;14.10;99.90;;;;;;5041510;28;20085;-70
2022/07/10 05:27:16;;;;;;;7.95;1.90;;;14.20;99.90;;;;;;5006898;28;20042;-70
2022/07/10 05:29:42;;;;;;;8.90;1.02;;;14.30;99.90;;;;;;5008424;28;20091;-70
2022/07/10 05:32:08;;;;;;;11.18;1.65;;;14.30;99.90;;;;;;5042973;28;20069;-70
2022/07/10 05:34:33;;;;;;;8.40;1.83;;;14.40;99.90;;;;;;5008440;28;20040;-70
2022/07/10 05:36:59;;;;;;;8.45;1.40;;;14.50;99.90;;;;;;5022906;28;20038;-70
2022/07/10 05:39:26;;;;;;;11.30;1.52;;;14.50;99.90;;;;;;5037934;28;20056;-70
2022/07/10 05:41:52;;;;;;;9.07;1.73;;;14.60;99.90;;;;;;5000785;28;20680;-70
2022/07/10 05:44:19;;;;;;;10.60;2.20;;;14.70;99.90;;;;;;5000250;28;20046;-70
2022/07/10 05:46:46;;;;;;;10.23;1.58;;;14.70;99.90;;;;;;5022825;28;20160;-70
2022/07/10 05:49:11;;;;;;;12.32;1.98;;;14.70;99.90;;;;;;5009004;28;20462;-70
2022/07/10 05:51:37;;;;;;;9.60;1.60;;;14.80;99.90;;;;;;5008126;28;20129;-70
2022/07/10 05:54:03;;;;;;;7.43;1.38;;;14.90;99.90;;;;;;5008402;28;20447;-70
2022/07/10 05:56:29;;;;;;;9.18;1.70;;;14.90;99.90;;;;;;5009881;28;20429;-71
2022/07/10 05:58:56;;;;;;;8.38;1.77;;;14.90;99.90;;;;;;5008552;28;20430;-71
2022/07/10 06:01:22;;;;;;;5.95;1.27;;;15.00;99.90;;;;;;5005741;28;20106;-71
2022/07/10 06:03:48;;;;;;;5.90;1.23;;;15.00;99.90;;;;;;5008431;28;20516;-71
2022/07/10 06:06:15;;;;;;;9.90;1.50;;;15.10;99.90;;;;;;5009806;28;20045;-71
2022/07/10 06:08:41;;;;;;;10.68;1.67;;;15.10;99.90;;;;;;5009229;28;20050;-71
2022/07/10 06:11:07;;;;;;;10.23;1.88;;;15.10;99.90;;;;;;5009415;28;20113;-71
2022/07/10 06:13:32;;;;;;;9.15;1.63;;;15.10;99.90;;;;;;5040802;28;20169;-71
2022/07/10 06:15:58;;;;;;;5.25;1.02;;;15.10;99.90;;;;;;5035551;28;20371;-71
2022/07/10 06:18:24;;;;;;;8.30;1.55;;;15.20;99.90;;;;;;4992021;28;20053;-71
2022/07/10 06:20:49;;;;;;;10.20;1.98;;;15.20;99.90;;;;;;5036522;28;20033;-71
2022/07/10 06:23:15;;;;;;;10.20;2.55;;;15.20;99.90;;;;;;5008535;28;20025;-72
2022/07/10 06:25:41;;;;;;;7.65;1.40;;;15.20;99.90;;;;;;5007627;28;20077;-72
2022/07/10 06:28:06;;;;;;;11.85;1.63;;;15.30;99.90;;;;;;5038604;28;20038;-71
2022/07/10 06:30:32;;;;;;;9.23;1.73;;;15.30;99.90;;;;;;4991497;28;20445;-71
2022/07/10 06:32:58;;;;;;;8.90;1.58;;;15.30;99.90;;;;;;4994153;28;20407;-71
2022/07/10 06:35:23;;;;;;;8.15;1.48;;;15.30;99.90;;;;;;5029450;28;20060;-71
2022/07/10 06:37:49;;;;;;;6.43;1.40;;;15.30;99.90;;;;;;5008870;28;20959;-71
2022/07/10 06:40:15;;;;;;;9.55;1.50;;;15.30;99.90;;;;;;5010186;28;20034;-71
2022/07/10 06:42:41;;;;;;;10.18;1.50;;;15.30;99.90;;;;;;5045499;28;20132;-71
2022/07/10 06:45:07;;;;;;;9.48;3.97;;;15.30;99.90;;;;;;5011919;28;20076;-71
2022/07/10 06:50:18;;;;;;;;;;;15.30;99.90;;;;;;5043313;28;20354;-71
2022/07/10 06:52:43;;;;;;;8.70;1.25;;;15.40;99.90;;;;;;5045450;28;19925;-71
2022/07/10 06:55:09;;;;;;;5.28;0.95;;;15.30;99.90;;;;;;5008631;28;20080;-72
2022/07/10 06:57:35;;;;;;;8.57;1.13;;;15.30;99.90;;;;;;5010801;28;20034;-72
2022/07/10 07:00:01;;;;;;;7.00;0.90;;;15.30;99.90;;;;;;5010502;28;20478;-71
2022/07/10 07:02:27;;;;;;;7.78;1.17;;;15.30;99.90;;;;;;5008592;28;20057;-72
2022/07/10 07:04:52;;;;;;;8.25;1.10;;;15.40;99.90;;;;;;5028819;28;20045;-72
2022/07/10 07:07:18;;;;;;;6.80;1.33;;;15.40;99.90;;;;;;5011099;28;20108;-72
2022/07/10 07:09:44;;;;;;;7.88;0.93;;;15.50;99.90;;;;;;5009675;28;20092;-72
2022/07/10 07:12:10;;;;;;;6.45;1.05;;;15.50;99.90;;;;;;5043207;28;20042;-72
2022/07/10 07:14:36;;;;;;;3.28;1.08;;;15.50;99.90;;;;;;5010815;28;20100;-72
2022/07/10 07:17:05;;;;;;;6.80;1.27;;;15.60;99.90;;;;;;5009858;28;20061;-72
2022/07/10 07:23:09;;;;;;;7.80;0.95;;;15.60;99.90;;;;;;5011458;28;20456;-71
2022/07/10 07:25:05;;;;;;;25.90;19.90;;;15.60;99.90;;;;;;5043465;28;20053;-71
2022/07/10 07:27:30;;;;;;;7.60;1.60;;;15.60;99.90;;;;;;5009429;28;20506;-71
2022/07/10 07:29:56;;;;;;;6.57;1.10;;;15.50;99.90;;;;;;5011444;28;20053;-70
2022/07/10 07:32:22;;;;;;;6.80;1.20;;;15.50;99.90;;;;;;5012381;28;20515;-70
2022/07/10 07:34:47;;;;;;;7.47;0.98;;;15.40;99.90;;;;;;5013077;28;20034;-70
2022/07/10 07:37:13;;;;;;;5.95;1.02;;;15.30;99.90;;;;;;5011389;28;20051;-69
2022/07/10 07:39:39;;;;;;;5.60;1.08;;;15.20;99.90;;;;;;5011719;28;20044;-70
2022/07/10 07:42:04;;;;;;;7.63;4.70;;;15.10;99.90;;;;;;5006311;28;20038;-70
2022/07/10 07:44:30;;;;;;;8.00;1.92;;;15.10;99.90;;;;;;5024396;28;20048;-70
2022/07/10 07:46:56;;;;;;;6.28;1.52;;;15.20;99.90;;;;;;5026267;28;20037;-70
2022/07/10 07:49:21;;;;;;;6.45;1.15;;;15.40;99.90;;;;;;5040925;28;20409;-70
2022/07/10 07:51:48;;;;;;;4.25;0.90;;;15.60;99.90;;;;;;4994144;28;20054;-69
2022/07/10 07:54:15;;;;;;;5.72;0.80;;;15.70;99.90;;;;;;5009191;28;20050;-69
2022/07/10 07:56:41;;;;;;;7.00;0.90;;;15.80;99.90;;;;;;5042510;28;20112;-69
2022/07/10 07:59:06;;;;;;;3.50;0.63;;;15.80;99.90;;;;;;5009808;28;20343;-69
2022/07/10 08:01:32;;;;;;;2.95;0.50;;;15.90;99.90;;;;;;5008060;28;20103;-69
2022/07/10 08:03:58;;;;;;;4.90;0.73;;;15.90;99.90;;;;;;5008954;28;20073;-69
2022/07/10 08:06:24;;;;;;;4.00;0.68;;;16.10;99.90;;;;;;5010962;28;20058;-69
2022/07/10 08:08:50;;;;;;;3.08;0.50;;;16.20;99.90;;;;;;5009376;28;20108;-69
2022/07/10 08:11:16;;;;;;;4.35;0.70;;;16.30;99.90;;;;;;5003476;28;20042;-69
2022/07/10 08:13:43;;;;;;;3.45;0.65;;;16.30;99.90;;;;;;5009807;28;20053;-69
2022/07/10 08:16:08;;;;;;;6.15;0.80;;;16.20;99.90;;;;;;5013092;28;20038;-69
2022/07/10 08:18:35;;;;;;;4.30;0.65;;;16.20;99.90;;;;;;5042789;28;20460;-69
2022/07/10 08:21:00;;;;;;;6.07;0.80;;;16.10;99.90;;;;;;5039675;28;20395;-69
2022/07/10 08:23:26;;;;;;;6.43;0.80;;;16.10;99.90;;;;;;5007930;28;20116;-70
2022/07/10 08:25:52;;;;;;;2.97;0.60;;;16.00;99.90;;;;;;5010733;28;20303;-70
2022/07/10 08:28:17;;;;;;;4.13;0.90;;;15.90;99.90;;;;;;5008382;28;20373;-71
2022/07/10 08:30:43;;;;;;;4.43;0.60;;;15.80;99.90;;;;;;5011300;28;20573;-69
2022/07/10 08:33:09;;;;;;;3.42;0.50;;;15.60;99.90;;;;;;5011601;28;20038;-69
2022/07/10 08:35:34;;;;;;;7.93;1.00;;;15.50;99.90;;;;;;5008745;28;20038;-70
2022/07/10 08:38:01;;;;;;;6.20;0.90;;;15.40;99.90;;;;;;5011389;28;20129;-69
2022/07/10 08:40:35;;;;;;;7.72;0.95;;;15.30;99.90;;;;;;5009473;28;20045;-69
2022/07/10 08:43:00;;;;;;;;;;;15.20;99.90;;;;;;5009166;28;20088;-68
2022/07/10 08:45:30;;;;;;;15.70;12.93;;;15.10;99.90;;;;;;5042829;28;19929;-69
2022/07/10 08:48:01;;;;;;;4.70;0.77;;;15.10;99.90;;;;;;5025943;28;20443;-70
2022/07/10 08:50:30;;;;;;;2.67;0.80;;;15.00;99.90;;;;;;5038611;28;20061;-69
2022/07/10 08:53:10;;;;;;;3.20;0.68;;;15.00;99.90;;;;;;5009129;28;20058;-69
2022/07/10 08:55:36;;;;;;;3.78;0.60;;;15.00;99.90;;;;;;5007867;28;20133;-69
2022/07/10 08:58:06;;;;;;;1.60;0.60;;;14.90;99.90;;;;;;5009026;28;20050;-68
2022/07/10 09:00:32;;;;;;;5.50;0.90;;;14.80;99.90;;;;;;5023943;28;20042;-68
2022/07/10 09:02:58;;;;;;;5.13;0.98;;;14.80;99.90;;;;;;5009339;28;20160;-68
2022/07/10 09:05:25;;;;;;;6.03;1.17;;;14.90;99.90;;;;;;5041432;28;20046;-68
2022/07/10 09:07:53;;;;;;;5.40;1.45;;;15.10;99.90;;;;;;5006768;28;20172;-68
2022/07/10 09:10:21;;;;;;;7.72;1.35;;;15.40;99.90;;;;;;5009292;28;20688;-68
2022/07/10 09:12:57;;;;;;;4.30;1.00;;;15.50;99.90;;;;;;5006088;28;20037;-69
2022/07/10 09:15:29;;;;;;;5.88;1.02;;;15.70;99.90;;;;;;5008858;28;20053;-69
2022/07/10 09:18:07;;;;;;;4.82;0.80;;;15.90;99.90;;;;;;5040787;28;20560;-68
2022/07/10 09:20:34;;;;;;;7.22;1.15;;;16.10;99.90;;;;;;5010277;28;20042;-68
2022/07/10 09:23:21;;;;;;;6.20;1.00;;;16.30;99.90;;;;;;5042091;28;20046;-68
2022/07/10 09:25:49;;;;;;;5.82;0.80;;;16.50;99.90;;;;;;5006012;28;20052;-69
2022/07/10 09:28:20;;;;;;;3.50;0.85;;;16.70;99.90;;;;;;5007622;28;20127;-69
2022/07/10 09:30:47;;;;;;;6.72;1.35;;;16.90;99.90;;;;;;5006112;28;20056;-69
2022/07/10 09:33:29;;;;;;;4.78;0.95;;;17.00;99.90;;;;;;5006079;28;20046;-68
2022/07/10 09:39:03;;;;;;;3.90;1.00;;;16.80;99.90;;;;;;5039829;28;20060;-69
2022/07/10 09:41:31;;;;;;;5.57;0.90;;;16.70;99.90;;;;;;5008107;28;20064;-69
2022/07/10 09:43:59;;;;;;;3.80;0.90;;;16.70;99.90;;;;;;5006017;28;20367;-69
2022/07/10 09:46:36;;;;;;;5.95;1.17;;;16.80;99.90;;;;;;5040696;28;20060;-69
2022/07/10 09:49:19;;;;;;;4.93;1.23;;;16.80;99.90;;;;;;5009337;28;20130;-69
2022/07/10 09:51:46;;;;;;;4.43;1.10;;;16.90;99.90;;;;;;5009521;28;20156;-70
2022/07/10 09:54:12;;;;;;;4.97;1.20;;;16.90;99.90;;;;;;5009406;28;20046;-69
2022/07/10 09:56:51;;;;;;;3.63;0.95;;;16.90;99.90;;;;;;5008516;28;20501;-69
2022/07/10 09:59:20;;;;;;;2.63;0.75;;;16.90;99.90;;;;;;5009260;28;20061;-69
2022/07/10 10:01:48;;;;;;;3.75;0.93;;;16.90;99.90;;;;;;5009261;28;20518;-69
2022/07/10 10:04:19;;;;;;;4.72;0.80;;;16.80;99.90;;;;;;5010215;28;20046;-69
2022/07/10 10:06:54;;;;;;;2.72;0.70;;;16.80;99.90;;;;;;5025528;28;20409;-71
2022/07/10 10:09:37;;;;;;;6.53;0.90;;;16.70;99.90;;;;;;5007987;28;20305;-69
2022/07/10 10:12:10;;;;;;;6.78;1.00;;;16.70;99.90;;;;;;5003112;28;20513;-71
2022/07/10 10:14:38;;;;;;;4.15;1.25;;;16.60;99.90;;;;;;5009435;28;20047;-71
2022/07/10 10:17:05;;;;;;;7.10;1.10;;;16.60;99.90;;;;;;5006744;28;20046;-71
2022/07/10 10:22:18;;;;;;;4.05;1.00;;;16.70;99.90;;;;;;5005325;28;20126;-70
2022/07/10 10:24:45;;;;;;;3.80;1.02;;;16.80;99.90;;;;;;5001795;28;20050;-72
2022/07/10 10:27:12;;;;;;;8.00;1.40;;;16.80;99.90;;;;;;5023519;28;20059;-70
2022/07/10 10:29:38;;;;;;;5.35;0.93;;;16.80;99.90;;;;;;5014092;28;20402;-70
2022/07/10 10:32:05;;;;;;;6.47;1.02;;;16.70;99.90;;;;;;5008452;28;20421;-72
2022/07/10 10:34:55;;;;;;;5.68;1.20;;;16.90;99.90;;;;;;5007674;28;20049;-71
2022/07/10 10:37:27;;;;;;;4.13;0.88;;;17.00;99.90;;;;;;5039384;28;20122;-70
2022/07/10 10:39:54;;;;;;;7.20;1.20;;;17.10;99.90;;;;;;5017890;28;20061;-71
2022/07/10 10:42:42;;;;;;;4.65;0.68;;;17.20;99.90;;;;;;5007731;28;20292;-72
2022/07/10 10:45:30;;;;;;;4.80;0.88;;;17.20;99.90;;;;;;5006888;28;20108;-71
2022/07/10 10:47:59;;;;;;;6.63;0.95;;;17.30;99.90;;;;;;5025096;28;20092;-72
2022/07/10 10:50:53;;;;;;;6.07;1.15;;;17.40;99.90;;;;;;5040308;28;20042;-72
2022/07/10 10:53:26;;;;;;;3.70;0.90;;;17.50;99.90;;;;;;5035499;28;20489;-71
2022/07/10 10:56:04;;;;;;;6.32;1.10;;;17.70;99.90;;;;;;5022742;28;20046;-71
2022/07/10 10:58:45;;;;;;;5.40;1.10;;;17.80;99.90;;;;;;4991027;28;20037;-72
2022/07/10 11:01:20;;;;;;;3.85;1.25;;;18.10;99.90;;;;;;5006759;28;20061;-72
2022/07/10 11:04:04;;;;;;;6.88;1.42;;;18.40;99.90;;;;;;5007517;28;20116;-72
2022/07/10 11:06:49;;;;;;;4.47;1.05;;;18.50;99.90;;;;;;5002687;28;20434;-72
2022/07/10 11:09:21;;;;;;;6.03;1.15;;;18.70;99.90;;;;;;5004416;28;20077;-71
2022/07/10 11:12:08;;;;;;;4.93;0.70;;;18.80;99.90;;;;;;5007175;28;20057;-71
2022/07/10 11:14:39;;;;;;;4.00;0.75;;;18.70;99.90;;;;;;5007214;28;20100;-72
2022/07/10 11:17:06;;;;;;;2.88;0.90;;;18.50;99.90;;;;;;5008008;28;20524;-72
2022/07/10 11:19:33;;;;;;;6.35;0.95;;;18.30;99.90;;;;;;5010991;28;20119;-73
2022/07/10 11:22:24;;;;;;;5.35;0.90;;;18.10;99.90;;;;;;5011917;28;20566;-72
2022/07/10 11:24:58;;;;;;;3.22;0.80;;;17.90;99.90;;;;;;5009971;28;20120;-71
2022/07/10 11:28:04;;;;;;;4.97;0.85;;;17.70;99.90;;;;;;5008948;28;20049;-71
2022/07/10 11:30:46;;;;;;;2.97;0.77;;;17.90;99.90;;;;;;5043693;28;20057;-71
2022/07/10 11:33:12;;;;;;;3.97;0.88;;;18.20;99.90;;;;;;5011733;28;20136;-71
2022/07/10 11:35:43;;;;;;;5.72;1.10;;;18.50;99.90;;;;;;5008783;28;20681;-71
2022/07/10 11:38:09;;;;;;;5.35;0.70;;;18.80;99.90;;;;;;5011432;28;20466;-71
2022/07/10 11:40:38;;;;;;;5.45;1.45;;;18.90;99.90;;;;;;5008619;28;20081;-71
2022/07/10 11:43:05;;;;;;;7.95;1.23;;;18.90;99.90;;;;;;5010513;28;20053;-73
2022/07/10 11:45:35;;;;;;;2.45;0.77;;;18.70;99.90;;;;;;5011682;28;20065;-72
2022/07/10 11:48:01;;;;;;;4.78;0.90;;;18.40;99.90;;;;;;4991480;28;20399;-72
2022/07/10 11:50:27;;;;;;;1.38;0.40;;;18.10;99.90;;;;;;5011541;28;20065;-72
2022/07/10 11:52:54;;;;;;;1.92;0.65;;;17.90;99.90;;;;;;5011485;28;20053;-72
2022/07/10 11:55:22;;;;;;;3.92;0.65;;;17.80;99.90;;;;;;5009947;28;20529;-72
2022/07/10 11:57:48;;;;;;;2.83;0.70;;;17.70;99.90;;;;;;5009041;28;20062;-71
2022/07/10 12:00:29;;;;;;;5.50;1.10;;;17.90;99.90;;;;;;5010927;28;20057;-72
2022/07/10 12:02:56;;;;;;;4.50;1.00;;;18.00;99.90;;;;;;5008914;28;20060;-71
2022/07/10 12:05:36;;;;;;;3.33;1.00;;;18.20;99.90;;;;;;5011898;28;20777;-71
2022/07/10 12:08:03;;;;;;;6.50;1.00;;;18.20;99.90;;;;;;5006488;28;20049;-72
2022/07/10 12:10:30;;;;;;;5.55;1.20;;;18.30;99.90;;;;;;5025043;28;20057;-70
2022/07/10 12:13:15;;;;;;;6.70;1.23;;;18.20;99.90;;;;;;5042777;28;20129;-72
2022/07/10 12:15:47;;;;;;;2.83;0.88;;;17.90;99.90;;;;;;5007523;28;20065;-71
2022/07/10 12:18:21;;;;;;;7.38;1.42;;;17.70;99.90;;;;;;5005429;28;20049;-71
2022/07/10 12:20:48;;;;;;;7.78;1.10;;;17.50;99.90;;;;;;5002736;28;20121;-71
2022/07/10 12:23:18;;;;;;;9.35;1.60;;;17.40;99.90;;;;;;5010324;28;20046;-72
2022/07/10 12:25:48;;;;;;;6.80;1.50;;;17.40;99.90;;;;;;5008390;28;20062;-72
2022/07/10 12:28:14;;;;;;;6.55;1.38;;;17.40;99.90;;;;;;5006725;28;20096;-71
2022/07/10 12:30:44;;;;;;;6.15;1.02;;;17.50;99.90;;;;;;5008951;28;20081;-71
2022/07/10 12:33:18;;;;;;;3.75;0.80;;;17.50;99.90;;;;;;5010924;28;20057;-72
2022/07/10 12:35:58;;;;;;;4.88;0.75;;;17.60;99.90;;;;;;5009938;28;20522;-70
2022/07/10 12:38:33;;;;;;;5.68;0.88;;;17.60;99.90;;;;;;5009999;28;20191;-71
2022/07/10 12:41:12;;;;;;;5.75;1.10;;;17.70;99.90;;;;;;5007348;28;20057;-70
2022/07/10 12:43:39;;;;;;;3.85;1.00;;;17.80;99.90;;;;;;5009640;28;20220;-69
2022/07/10 12:46:18;;;;;;;6.72;0.98;;;17.80;99.90;;;;;;5008506;28;20103;-68
2022/07/10 12:49:01;;;;;;;3.28;0.90;;;17.80;99.90;;;;;;5011914;28;20289;-69
2022/07/10 12:51:29;;;;;;;7.18;1.15;;;17.80;99.90;;;;;;5015256;28;20073;-69
2022/07/10 12:53:55;;;;;;;7.65;0.90;;;17.80;99.90;;;;;;5010418;28;20053;-67
2022/07/10 12:56:27;;;;;;;6.10;1.35;;;17.70;99.90;;;;;;5009103;28;20454;-69
2022/07/10 12:58:53;;;;;;;4.38;1.02;;;17.60;99.90;;;;;;5011474;28;20042;-69
2022/07/10 13:01:19;;;;;;;3.50;1.25;;;17.50;99.90;;;;;;5009416;28;20396;-69
2022/07/10 13:03:45;;;;;;;5.90;0.90;;;17.50;99.90;;;;;;5010085;28;20124;-69